Clearwater, Kansas
Current Conditions -  °F | °C
As of 8:53 PM on Wednesday 22 Oct 2014 (Local Time) from KICT Reporting Station
Overcast Overcast  
Wind Chill: 66°   Ceiling: 4500
Heat Index: 66°   Visibility: 10mi
Dew Point: 58°   Wind: 3mph
Humidity: 75%   Direction: 260°W
Pressure: 30.07"   Gusts: NA
Location:  37.5°N, 97.5°W
Report Text: KICT 230153Z 26003KT 10SM BKN045 BKN075 OVC100 19/14 A3007 RMK AO2 RAE31 SLP175 SHRA VC NW-NE P0000 T01890144
Loading
Personal Weather Stations






























Interactive Weather Map
Tropical Storm Tracking
New forecast layout! Learn more

10-Day Weather Forecast

Advertisements
Track Severe Weather on mobile